createdAt,value
2023-03-17T00:01:25.672Z,9.53
2023-03-17T00:03:53.951Z,9.70
2023-03-17T00:06:27.921Z,9.93
2023-03-17T00:08:57.411Z,10.47
2023-03-17T00:11:28.324Z,10.00
2023-03-17T00:13:56.714Z,10.57
2023-03-17T00:16:27.153Z,10.57
2023-03-17T00:18:56.766Z,10.77
2023-03-17T00:21:28.988Z,10.43
2023-03-17T00:23:57.451Z,10.63
2023-03-17T00:26:28.541Z,10.30
2023-03-17T00:28:56.889Z,10.60
2023-03-17T00:31:27.718Z,11.43
2023-03-17T00:33:56.569Z,11.27
2023-03-17T00:36:28.146Z,11.33
2023-03-17T00:38:57.344Z,10.53
2023-03-17T00:41:27.123Z,10.70
2023-03-17T00:43:55.463Z,10.63
2023-03-17T00:46:28.782Z,11.03
2023-03-17T00:48:57.240Z,11.00
2023-03-17T00:51:25.390Z,10.37
2023-03-17T00:53:53.517Z,10.07
2023-03-17T00:56:22.518Z,10.00
2023-03-17T00:58:52.314Z,9.50
2023-03-17T01:01:20.491Z,10.50
2023-03-17T01:03:48.639Z,10.60
2023-03-17T01:06:17.725Z,10.10
2023-03-17T01:08:46.592Z,10.50
2023-03-17T01:11:18.777Z,10.37
2023-03-17T01:13:47.024Z,9.73
2023-03-17T01:16:17.160Z,10.03
2023-03-17T01:18:45.733Z,9.93
2023-03-17T01:21:14.006Z,9.53
2023-03-17T01:23:42.323Z,10.03
2023-03-17T01:26:10.552Z,9.90
2023-03-17T01:28:39.255Z,9.80
2023-03-17T01:31:07.448Z,10.10
2023-03-17T01:33:36.875Z,9.53
2023-03-17T01:36:05.174Z,9.43
2023-03-17T01:38:33.307Z,9.90
2023-03-17T01:41:03.375Z,9.00
2023-03-17T01:43:31.973Z,9.03
2023-03-17T01:46:29.239Z,8.93
2023-03-17T01:49:11.010Z,9.10
2023-03-17T01:51:46.468Z,16.70
2023-03-17T01:54:23.043Z,13.27
2023-03-17T01:56:53.470Z,10.57
2023-03-17T01:59:27.882Z,8.57
2023-03-17T02:02:01.706Z,9.37
2023-03-17T02:04:31.639Z,8.93
2023-03-17T02:07:00.088Z,8.50
2023-03-17T02:09:29.456Z,8.70
2023-03-17T02:12:00.806Z,7.93
2023-03-17T02:14:30.079Z,7.73
2023-03-17T02:16:58.464Z,7.50
2023-03-17T02:19:26.887Z,9.17
2023-03-17T02:21:58.070Z,7.63
2023-03-17T02:24:32.007Z,7.03
2023-03-17T02:27:06.678Z,7.70
2023-03-17T02:29:37.934Z,7.33
2023-03-17T02:32:06.843Z,6.90
2023-03-17T02:34:35.723Z,7.03
2023-03-17T02:37:05.798Z,6.93
2023-03-17T02:39:33.903Z,7.13
2023-03-17T02:42:02.144Z,6.07
2023-03-17T02:44:30.204Z,7.13
2023-03-17T02:46:58.577Z,6.30
2023-03-17T02:49:27.253Z,6.37
2023-03-17T02:51:56.018Z,6.13
2023-03-17T02:54:25.600Z,5.47
2023-03-17T02:56:53.725Z,5.63
2023-03-17T02:59:22.195Z,5.90
2023-03-17T03:01:50.827Z,6.47
2023-03-17T03:04:20.126Z,6.03
2023-03-17T03:06:48.662Z,5.70
2023-03-17T03:09:17.799Z,5.93
2023-03-17T03:11:48.683Z,5.37
2023-03-17T03:14:17.356Z,5.20
2023-03-17T03:16:45.974Z,5.60
2023-03-17T03:19:14.314Z,5.50
2023-03-17T03:21:42.332Z,5.67
2023-03-17T03:24:11.010Z,5.53
2023-03-17T03:26:39.245Z,5.30
2023-03-17T03:29:09.071Z,5.27
2023-03-17T03:31:37.183Z,5.10
2023-03-17T03:34:05.286Z,5.23
2023-03-17T03:36:33.443Z,5.27
2023-03-17T03:39:02.099Z,5.20
2023-03-17T03:41:30.256Z,5.20
2023-03-17T03:43:58.370Z,4.87
2023-03-17T03:46:28.285Z,4.70
2023-03-17T03:48:56.637Z,4.70
2023-03-17T03:51:24.732Z,4.67
2023-03-17T03:53:52.782Z,4.87
2023-03-17T03:56:20.872Z,4.73
2023-03-17T03:58:49.002Z,4.73
2023-03-17T04:01:17.716Z,4.60
2023-03-17T04:03:47.421Z,4.13
2023-03-17T04:06:16.223Z,4.30
2023-03-17T04:08:44.469Z,4.07
2023-03-17T04:11:12.632Z,3.80
2023-03-17T04:13:40.732Z,4.23
2023-03-17T04:16:09.993Z,4.30
2023-03-17T04:18:38.296Z,4.13
2023-03-17T04:21:08.327Z,4.23
2023-03-17T04:23:36.469Z,4.47
2023-03-17T04:26:05.136Z,4.20
2023-03-17T04:28:33.259Z,4.40
2023-03-17T04:31:01.524Z,4.70
2023-03-17T04:33:29.682Z,3.90
2023-03-17T04:35:58.504Z,4.50
2023-03-17T04:38:28.161Z,4.07
2023-03-17T04:40:56.228Z,4.30
2023-03-17T04:43:24.436Z,4.57
2023-03-17T04:45:52.639Z,4.20
2023-03-17T04:48:21.030Z,4.17
2023-03-17T04:50:49.199Z,3.50
2023-03-17T04:53:17.730Z,4.60
2023-03-17T04:55:47.315Z,4.37
2023-03-17T04:58:29.550Z,4.63
2023-03-17T05:00:59.122Z,4.70
2023-03-17T05:03:28.572Z,4.90
2023-03-17T05:05:57.394Z,5.07
2023-03-17T05:08:25.726Z,4.50
2023-03-17T05:10:55.241Z,5.07
2023-03-17T05:13:23.383Z,4.97
2023-03-17T05:15:52.627Z,4.47
2023-03-17T05:18:22.032Z,5.13
2023-03-17T05:20:50.170Z,4.63
2023-03-17T05:23:18.375Z,5.13
2023-03-17T05:25:46.824Z,5.47
2023-03-17T05:28:16.806Z,5.03
2023-03-17T05:30:45.927Z,5.07
2023-03-17T05:33:14.591Z,5.33
2023-03-17T05:35:42.979Z,5.10
2023-03-17T05:38:12.667Z,7.73
2023-03-17T05:40:41.120Z,7.73
2023-03-17T05:43:09.363Z,5.77
2023-03-17T05:45:39.308Z,6.63
2023-03-17T05:48:07.585Z,4.87
2023-03-17T05:50:35.928Z,5.00
2023-03-17T05:53:03.962Z,4.60
2023-03-17T05:55:32.061Z,4.93
2023-03-17T05:58:00.892Z,5.17
2023-03-17T06:00:29.640Z,5.47
2023-03-17T06:02:59.263Z,6.23
2023-03-17T06:05:27.506Z,5.60
2023-03-17T06:07:56.606Z,5.97
2023-03-17T06:10:25.489Z,5.67
2023-03-17T06:12:53.877Z,4.70
2023-03-17T06:15:22.461Z,4.80
2023-03-17T06:17:50.524Z,5.07
2023-03-17T06:20:21.075Z,5.43
2023-03-17T06:23:03.424Z,5.00
2023-03-17T06:25:33.294Z,4.70
2023-03-17T06:28:03.829Z,5.93
2023-03-17T06:30:32.874Z,5.13
2023-03-17T06:33:01.379Z,5.73
2023-03-17T06:35:32.144Z,5.80
2023-03-17T06:38:00.942Z,6.30
2023-03-17T06:40:29.263Z,5.97
2023-03-17T06:42:57.922Z,6.23
2023-03-17T06:45:26.729Z,6.30
2023-03-17T06:47:54.956Z,8.20
2023-03-17T06:50:23.131Z,9.30
2023-03-17T06:52:52.596Z,5.70
2023-03-17T06:55:21.595Z,7.30
2023-03-17T06:57:51.157Z,6.17
2023-03-17T07:00:21.080Z,5.70
2023-03-17T07:02:49.520Z,6.17
2023-03-17T07:05:17.973Z,6.37
2023-03-17T07:07:46.463Z,7.20
2023-03-17T07:10:17.318Z,6.17
2023-03-17T07:12:46.036Z,5.23
2023-03-17T07:15:14.177Z,4.33
2023-03-17T07:17:42.561Z,4.60
2023-03-17T07:20:12.061Z,4.43
2023-03-17T07:22:40.356Z,4.47
2023-03-17T07:25:09.726Z,4.03
2023-03-17T07:27:39.365Z,4.23
2023-03-17T07:30:08.943Z,4.00
2023-03-17T07:32:37.728Z,4.40
2023-03-17T07:35:08.257Z,4.10
2023-03-17T07:37:36.439Z,4.23
2023-03-17T07:40:06.535Z,4.23
2023-03-17T07:42:34.716Z,4.13
2023-03-17T07:45:06.076Z,4.20
2023-03-17T07:47:34.524Z,4.20
2023-03-17T07:50:03.063Z,4.60
2023-03-17T07:52:31.346Z,4.50
2023-03-17T07:54:59.732Z,4.23
2023-03-17T07:57:28.789Z,4.03
2023-03-17T07:59:58.594Z,4.17
2023-03-17T08:02:29.157Z,4.70
2023-03-17T08:04:58.048Z,4.40
2023-03-17T08:07:26.616Z,4.50
2023-03-17T08:09:55.074Z,4.80
2023-03-17T08:12:24.043Z,4.37
2023-03-17T08:14:52.528Z,4.10
2023-03-17T08:17:21.131Z,4.77
2023-03-17T08:19:51.340Z,4.53
2023-03-17T08:22:19.784Z,4.03
2023-03-17T08:24:48.958Z,4.37
2023-03-17T08:27:17.208Z,4.30
2023-03-17T08:29:45.540Z,4.30
2023-03-17T08:32:14.328Z,4.07
2023-03-17T08:34:44.498Z,4.10
2023-03-17T08:37:16.049Z,4.67
2023-03-17T08:39:45.087Z,4.27
2023-03-17T08:42:15.171Z,4.30
2023-03-17T08:44:44.133Z,4.40
2023-03-17T08:47:12.582Z,4.03
2023-03-17T08:49:41.110Z,3.80
2023-03-17T08:52:10.027Z,4.50
2023-03-17T08:54:39.632Z,4.40
2023-03-17T08:57:08.703Z,3.90
2023-03-17T08:59:37.209Z,4.03
2023-03-17T09:02:05.808Z,4.50
2023-03-17T09:04:34.075Z,4.47
2023-03-17T09:07:04.228Z,4.40
2023-03-17T09:09:34.590Z,4.20
2023-03-17T09:12:06.469Z,4.20
2023-03-17T09:14:43.324Z,4.37
2023-03-17T09:17:15.925Z,4.20
2023-03-17T09:19:45.072Z,4.10
2023-03-17T09:22:14.940Z,4.50
2023-03-17T09:24:43.358Z,4.77
2023-03-17T09:27:13.448Z,4.20
2023-03-17T09:29:42.483Z,3.93
2023-03-17T09:32:11.293Z,4.20
2023-03-17T09:34:39.621Z,4.50
2023-03-17T09:37:09.954Z,5.10
2023-03-17T09:39:38.669Z,5.50
2023-03-17T09:42:23.337Z,6.13
2023-03-17T09:45:06.615Z,5.80
2023-03-17T09:47:52.257Z,6.40
2023-03-17T09:50:26.878Z,5.50
2023-03-17T09:52:58.423Z,5.03
2023-03-17T09:55:30.046Z,5.33
2023-03-17T09:58:01.148Z,5.77
2023-03-17T10:00:31.320Z,6.03
2023-03-17T10:03:01.722Z,5.60
2023-03-17T10:05:32.130Z,6.50
2023-03-17T10:08:22.660Z,6.13
2023-03-17T10:11:03.149Z,4.73
2023-03-17T10:13:50.120Z,4.77
2023-03-17T10:16:21.877Z,5.60
2023-03-17T10:18:56.588Z,7.10
2023-03-17T10:21:29.793Z,6.20
2023-03-17T10:23:59.367Z,4.47
2023-03-17T10:26:32.873Z,4.40
2023-03-17T10:29:04.243Z,5.73
2023-03-17T10:31:35.608Z,6.00
2023-03-17T10:34:14.703Z,6.20
2023-03-17T10:36:47.058Z,5.47
2023-03-17T10:39:20.073Z,5.00
2023-03-17T10:41:55.728Z,5.40
2023-03-17T10:44:43.996Z,5.50
2023-03-17T10:47:32.791Z,6.10
2023-03-17T10:50:05.619Z,5.43
2023-03-17T10:52:39.648Z,5.27
2023-03-17T10:55:10.695Z,4.87
2023-03-17T10:57:39.975Z,5.10
2023-03-17T11:00:20.011Z,5.47
2023-03-17T11:02:52.734Z,5.00
2023-03-17T11:05:23.384Z,4.20
2023-03-17T11:07:58.083Z,4.37
2023-03-17T11:10:29.371Z,5.10
2023-03-17T11:13:02.079Z,5.07
2023-03-17T11:15:35.919Z,3.80
2023-03-17T11:18:06.029Z,5.63
2023-03-17T11:20:51.567Z,5.30
2023-03-17T11:23:29.858Z,5.43
2023-03-17T11:26:07.440Z,5.40
2023-03-17T11:28:41.134Z,5.80
2023-03-17T11:31:17.798Z,4.87
2023-03-17T11:33:57.105Z,4.93
2023-03-17T11:36:41.926Z,4.70
2023-03-17T11:39:14.163Z,4.80
2023-03-17T11:41:59.282Z,4.60
2023-03-17T11:44:52.891Z,4.60
2023-03-17T11:47:42.879Z,5.10
2023-03-17T11:50:22.163Z,5.33
2023-03-17T11:53:07.297Z,4.50
2023-03-17T11:55:44.644Z,3.90
2023-03-17T11:58:22.970Z,3.60
2023-03-17T12:00:54.985Z,3.63
2023-03-17T12:03:33.430Z,4.87
2023-03-17T12:06:05.820Z,3.27
2023-03-17T12:08:40.601Z,3.97
2023-03-17T12:11:12.140Z,3.60
2023-03-17T12:13:46.012Z,4.83
2023-03-17T12:16:19.367Z,3.87
2023-03-17T12:18:59.156Z,3.60
2023-03-17T12:21:34.408Z,3.90
2023-03-17T12:24:11.507Z,5.60
2023-03-17T12:26:45.621Z,5.33
2023-03-17T12:29:17.834Z,5.47
2023-03-17T12:31:53.771Z,4.30
2023-03-17T12:34:30.162Z,4.97
2023-03-17T12:36:59.153Z,4.10
2023-03-17T12:39:32.089Z,4.40
2023-03-17T12:42:15.355Z,3.90
2023-03-17T12:45:05.382Z,4.30
2023-03-17T12:47:59.748Z,3.90
2023-03-17T12:50:52.163Z,3.80
2023-03-17T12:53:29.735Z,3.60
2023-03-17T12:56:03.878Z,3.00
2023-03-17T12:58:37.112Z,3.50
2023-03-17T13:01:13.193Z,3.40
2023-03-17T13:03:58.564Z,3.60
2023-03-17T13:06:32.498Z,4.00
2023-03-17T13:09:43.727Z,3.90
2023-03-17T13:12:56.487Z,4.00
2023-03-17T13:15:55.807Z,4.17
2023-03-17T13:18:48.075Z,4.00
2023-03-17T13:21:20.842Z,3.63
2023-03-17T13:23:55.410Z,4.00
2023-03-17T13:26:40.961Z,3.73
2023-03-17T13:29:25.957Z,3.70
2023-03-17T13:32:14.992Z,3.80
2023-03-17T13:34:50.088Z,3.90
2023-03-17T13:37:27.628Z,4.10
2023-03-17T13:40:11.045Z,3.13
2023-03-17T13:43:00.018Z,2.73
2023-03-17T13:45:38.475Z,3.40
2023-03-17T13:48:34.143Z,2.80
2023-03-17T13:51:14.973Z,3.00
2023-03-17T13:53:50.021Z,2.90
2023-03-17T13:56:22.758Z,3.00
2023-03-17T13:59:09.140Z,2.80
2023-03-17T14:01:45.175Z,2.70
2023-03-17T14:04:23.905Z,3.10
2023-03-17T14:06:55.000Z,2.80
2023-03-17T14:09:38.117Z,2.90
2023-03-17T14:12:13.580Z,2.93
2023-03-17T14:14:50.560Z,3.17
2023-03-17T14:17:23.651Z,2.90
2023-03-17T14:20:06.355Z,2.60
2023-03-17T14:22:41.175Z,3.00
2023-03-17T14:25:17.767Z,3.00
2023-03-17T14:27:47.113Z,3.53
2023-03-17T14:30:20.926Z,3.70
2023-03-17T14:33:02.859Z,3.27
2023-03-17T14:35:32.660Z,3.40
2023-03-17T14:38:02.060Z,3.30
2023-03-17T14:40:36.774Z,3.30
2023-03-17T14:43:05.352Z,4.00
2023-03-17T14:45:48.024Z,4.03
2023-03-17T14:48:22.076Z,3.83
2023-03-17T14:50:53.285Z,4.00
2023-03-17T14:53:22.444Z,4.00
2023-03-17T14:55:52.216Z,4.30
2023-03-17T14:58:24.695Z,4.77
2023-03-17T15:00:59.070Z,3.80
2023-03-17T15:03:31.676Z,4.80
2023-03-17T15:06:20.040Z,3.80
2023-03-17T15:08:48.225Z,4.00
2023-03-17T15:11:20.404Z,4.20
2023-03-17T15:13:49.899Z,4.20
2023-03-17T15:16:23.291Z,3.90
2023-03-17T15:19:05.104Z,4.50
2023-03-17T15:21:41.266Z,4.70
2023-03-17T15:24:27.252Z,4.10
2023-03-17T15:27:06.520Z,3.97
2023-03-17T15:29:37.230Z,5.00
2023-03-17T15:32:15.422Z,5.13
2023-03-17T15:34:48.101Z,6.23
2023-03-17T15:37:19.339Z,4.70
2023-03-17T15:39:48.170Z,5.33
2023-03-17T15:42:18.480Z,4.80
2023-03-17T15:44:46.758Z,6.83
2023-03-17T15:47:16.673Z,6.07
2023-03-17T15:49:46.863Z,5.73
2023-03-17T15:52:21.636Z,5.17
2023-03-17T15:54:50.583Z,5.47
2023-03-17T15:57:19.041Z,6.43
2023-03-17T15:59:47.292Z,5.50
2023-03-17T16:02:28.858Z,5.50
2023-03-17T16:04:58.952Z,7.17
2023-03-17T16:07:27.507Z,6.20
2023-03-17T16:09:55.883Z,5.60
2023-03-17T16:12:24.240Z,5.90
2023-03-17T16:14:52.560Z,5.70
2023-03-17T16:17:26.964Z,6.10
2023-03-17T16:19:55.966Z,6.37
2023-03-17T16:22:38.197Z,6.13
2023-03-17T16:25:17.989Z,6.13
2023-03-17T16:27:46.154Z,6.80
2023-03-17T16:30:17.500Z,6.20
2023-03-17T16:32:45.779Z,6.90
2023-03-17T16:35:19.388Z,6.00
2023-03-17T16:37:51.936Z,6.87
2023-03-17T16:40:23.319Z,6.30
2023-03-17T16:42:52.010Z,6.00
2023-03-17T16:45:26.491Z,5.93
2023-03-17T16:47:55.250Z,6.30
2023-03-17T16:50:26.645Z,6.77
2023-03-17T16:52:56.180Z,6.77
2023-03-17T16:55:27.105Z,6.87
2023-03-17T16:57:58.448Z,6.57
2023-03-17T17:00:29.004Z,6.27
2023-03-17T17:02:57.403Z,7.80
2023-03-17T17:05:27.597Z,7.00
2023-03-17T17:07:58.346Z,6.33
2023-03-17T17:10:28.780Z,5.70
2023-03-17T17:12:57.253Z,5.40
2023-03-17T17:15:25.960Z,5.20
2023-03-17T17:17:57.826Z,5.13
2023-03-17T17:20:30.822Z,5.57
2023-03-17T17:23:02.195Z,5.47
2023-03-17T17:25:31.008Z,4.77
2023-03-17T17:28:00.287Z,5.93
2023-03-17T17:30:30.927Z,5.37
2023-03-17T17:33:01.433Z,4.20
2023-03-17T17:35:32.804Z,4.00
2023-03-17T17:38:02.847Z,4.57
2023-03-17T17:40:32.256Z,4.20
2023-03-17T17:43:02.474Z,4.60
2023-03-17T17:45:30.741Z,4.10
2023-03-17T17:47:58.981Z,4.30
2023-03-17T17:50:28.926Z,4.43
2023-03-17T17:53:02.833Z,4.00
2023-03-17T17:55:33.701Z,4.10
2023-03-17T17:58:02.025Z,4.40
2023-03-17T18:00:30.789Z,3.80
2023-03-17T18:02:59.009Z,4.13
2023-03-17T18:05:27.524Z,3.80
2023-03-17T18:07:55.971Z,4.53
2023-03-17T18:10:26.011Z,4.47
2023-03-17T18:12:56.184Z,3.80
2023-03-17T18:15:26.164Z,4.70
2023-03-17T18:17:54.770Z,4.60
2023-03-17T18:20:24.485Z,4.20
2023-03-17T18:22:54.269Z,4.30
2023-03-17T18:25:22.414Z,4.37
2023-03-17T18:27:50.695Z,4.00
2023-03-17T18:30:25.645Z,3.87
2023-03-17T18:32:58.514Z,4.20
2023-03-17T18:35:28.783Z,3.60
2023-03-17T18:37:58.546Z,4.07
2023-03-17T18:40:27.060Z,3.50
2023-03-17T18:42:55.902Z,3.70
2023-03-17T18:45:25.470Z,4.30
2023-03-17T18:47:53.767Z,4.00
2023-03-17T18:50:22.786Z,4.20
2023-03-17T18:52:51.370Z,4.50
2023-03-17T18:55:19.528Z,5.27
2023-03-17T18:57:48.633Z,4.07
2023-03-17T19:00:18.835Z,3.83
2023-03-17T19:02:48.742Z,4.33
2023-03-17T19:05:16.982Z,3.77
2023-03-17T19:07:45.320Z,3.53
2023-03-17T19:10:14.097Z,3.93
2023-03-17T19:12:43.722Z,4.00
2023-03-17T19:15:13.113Z,3.70
2023-03-17T19:17:41.740Z,5.30
2023-03-17T19:20:13.495Z,3.97
2023-03-17T19:22:41.892Z,3.90
2023-03-17T19:25:11.377Z,4.17
2023-03-17T19:27:39.953Z,3.77
2023-03-17T19:30:09.626Z,3.53
2023-03-17T19:32:38.437Z,4.60
2023-03-17T19:35:08.370Z,4.60
2023-03-17T19:37:38.448Z,4.40
2023-03-17T19:40:08.501Z,3.50
2023-03-17T19:42:36.777Z,5.87
2023-03-17T19:45:06.372Z,4.77
2023-03-17T19:47:35.689Z,6.10
2023-03-17T19:50:04.858Z,6.20
2023-03-17T19:52:34.033Z,4.40
2023-03-17T19:55:05.446Z,4.40
2023-03-17T19:57:36.157Z,5.17
2023-03-17T20:00:08.803Z,4.53
2023-03-17T20:02:36.977Z,4.47
2023-03-17T20:05:05.749Z,6.13
2023-03-17T20:07:34.107Z,4.93
2023-03-17T20:10:04.140Z,5.20
2023-03-17T20:12:33.621Z,4.63
2023-03-17T20:15:02.890Z,3.97
2023-03-17T20:17:31.424Z,4.63
2023-03-17T20:19:59.881Z,4.77
2023-03-17T20:22:29.893Z,4.23
2023-03-17T20:24:58.583Z,4.10
2023-03-17T20:27:28.176Z,4.33
2023-03-17T20:29:56.735Z,4.37
2023-03-17T20:32:26.514Z,4.10
2023-03-17T20:34:55.506Z,4.63
2023-03-17T20:37:24.856Z,4.33
2023-03-17T20:39:54.288Z,5.73
2023-03-17T20:42:22.911Z,5.00
2023-03-17T20:44:53.280Z,4.57
2023-03-17T20:47:22.113Z,4.20
2023-03-17T20:49:50.739Z,5.40
2023-03-17T20:52:19.032Z,5.47
2023-03-17T20:54:47.426Z,5.50
2023-03-17T20:57:16.043Z,5.57
2023-03-17T20:59:45.283Z,4.70
2023-03-17T21:02:18.531Z,4.50
2023-03-17T21:04:48.987Z,4.40
2023-03-17T21:07:18.661Z,5.20
2023-03-17T21:09:47.664Z,4.03
2023-03-17T21:12:18.234Z,4.70
2023-03-17T21:14:46.549Z,4.07
2023-03-17T21:17:18.091Z,4.57
2023-03-17T21:19:47.486Z,4.60
2023-03-17T21:22:16.055Z,4.43
2023-03-17T21:24:44.340Z,4.47
2023-03-17T21:27:15.777Z,3.97
2023-03-17T21:29:43.881Z,4.30
2023-03-17T21:32:12.225Z,5.00
2023-03-17T21:34:41.958Z,4.30
2023-03-17T21:37:10.951Z,3.83
2023-03-17T21:39:39.212Z,3.90
2023-03-17T21:42:09.695Z,4.73
2023-03-17T21:44:38.441Z,3.77
2023-03-17T21:47:07.703Z,4.13
2023-03-17T21:49:35.926Z,4.32
2023-03-17T21:52:05.580Z,4.00
2023-03-17T21:54:35.099Z,4.33
2023-03-17T21:57:03.262Z,4.13
2023-03-17T21:59:34.381Z,6.60
2023-03-17T22:02:02.893Z,10.10
2023-03-17T22:04:31.069Z,6.63
2023-03-17T22:06:59.602Z,4.97
2023-03-17T22:09:29.281Z,4.00
2023-03-17T22:11:57.634Z,5.17
2023-03-17T22:14:25.938Z,4.10
2023-03-17T22:16:54.287Z,3.90
2023-03-17T22:19:22.485Z,3.93
2023-03-17T22:21:51.808Z,4.93
2023-03-17T22:24:20.537Z,3.60
2023-03-17T22:26:50.072Z,4.43
2023-03-17T22:29:18.697Z,4.37
2023-03-17T22:31:47.332Z,4.53
2023-03-17T22:34:16.124Z,4.50
2023-03-17T22:36:44.253Z,4.80
2023-03-17T22:39:12.411Z,4.73
2023-03-17T22:41:40.996Z,4.43
2023-03-17T22:44:11.624Z,4.93
2023-03-17T22:46:41.527Z,3.70
2023-03-17T22:49:10.020Z,4.83
2023-03-17T22:51:41.177Z,4.00
2023-03-17T22:54:11.378Z,3.80
2023-03-17T22:56:39.572Z,4.13
2023-03-17T22:59:07.824Z,4.00
2023-03-17T23:01:37.386Z,4.30
2023-03-17T23:04:06.575Z,3.90
2023-03-17T23:06:35.934Z,3.90
2023-03-17T23:09:04.833Z,4.33
2023-03-17T23:11:33.030Z,4.07
2023-03-17T23:14:01.211Z,4.17
2023-03-17T23:16:29.384Z,4.20
2023-03-17T23:18:58.987Z,4.23
2023-03-17T23:21:30.621Z,3.83
2023-03-17T23:23:58.834Z,3.90
2023-03-17T23:26:27.614Z,4.23
2023-03-17T23:28:55.831Z,3.93
2023-03-17T23:31:24.711Z,4.07
2023-03-17T23:33:52.917Z,3.70
2023-03-17T23:36:22.431Z,3.70
2023-03-17T23:38:52.233Z,4.17
2023-03-17T23:41:20.519Z,3.57
2023-03-17T23:43:49.069Z,4.30
2023-03-17T23:46:17.341Z,4.33
2023-03-17T23:48:45.698Z,3.50
2023-03-17T23:51:14.440Z,3.73
2023-03-17T23:53:43.922Z,3.70
2023-03-17T23:56:13.361Z,3.30
2023-03-17T23:58:42.538Z,3.30
